createdAt,value
2018-12-29T00:01:58.874Z,25.90
2018-12-29T00:04:27.366Z,26.80
2018-12-29T00:07:15.299Z,26.47
2018-12-29T00:10:03.170Z,28.10
2018-12-29T00:12:31.727Z,31.30
2018-12-29T00:15:00.218Z,26.33
2018-12-29T00:17:28.717Z,33.63
2018-12-29T00:20:16.551Z,29.43
2018-12-29T00:23:04.287Z,24.90
2018-12-29T00:25:32.802Z,29.63
2018-12-29T00:28:01.291Z,24.10
2018-12-29T00:30:29.819Z,26.40
2018-12-29T00:32:58.301Z,29.33
2018-12-29T00:35:26.785Z,25.53
2018-12-29T00:37:55.303Z,27.63
2018-12-29T00:40:42.900Z,33.50
2018-12-29T00:43:30.698Z,23.70
2018-12-29T00:45:59.182Z,32.73
2018-12-29T00:48:27.672Z,25.07
2018-12-29T00:50:56.186Z,26.27
2018-12-29T00:53:24.670Z,31.60
2018-12-29T00:58:27.158Z,25.80
2018-12-29T01:00:55.641Z,27.93
2018-12-29T01:03:43.412Z,24.47
2018-12-29T01:06:11.901Z,19.73
2018-12-29T01:08:59.608Z,25.70
2018-12-29T01:11:47.218Z,23.27
2018-12-29T01:14:34.928Z,25.00
2018-12-29T01:17:03.428Z,21.57
2018-12-29T01:19:51.094Z,26.40
2018-12-29T01:25:26.386Z,26.60
2018-12-29T01:28:14.187Z,22.40
2018-12-29T01:31:03.994Z,19.20
2018-12-29T01:33:32.761Z,22.60
2018-12-29T01:36:01.580Z,31.33
2018-12-29T01:38:30.449Z,27.43
2018-12-29T01:40:59.313Z,20.00
2018-12-29T01:43:28.266Z,23.63
2018-12-29T01:45:57.078Z,23.37
2018-12-29T01:48:26.047Z,31.53
2018-12-29T01:50:54.605Z,22.50
2018-12-29T01:53:23.161Z,29.80
2018-12-29T01:55:51.986Z,23.80
2018-12-29T01:58:20.780Z,22.07
2018-12-29T02:00:49.701Z,22.03
2018-12-29T02:03:18.494Z,23.10
2018-12-29T02:05:47.362Z,24.77
2018-12-29T02:08:16.260Z,26.93
2018-12-29T02:10:45.125Z,24.07
2018-12-29T02:13:14.115Z,30.87
2018-12-29T02:15:42.601Z,26.00
2018-12-29T02:18:11.157Z,21.73
2018-12-29T02:20:40.019Z,27.53
2018-12-29T02:23:08.884Z,32.50
2018-12-29T02:25:37.726Z,28.23
2018-12-29T02:28:06.211Z,28.23
2018-12-29T02:30:35.074Z,24.30
2018-12-29T02:33:03.665Z,29.60
2018-12-29T02:35:32.534Z,32.00
2018-12-29T02:38:01.447Z,33.37
2018-12-29T02:40:30.388Z,34.20
2018-12-29T02:42:59.323Z,28.60
2018-12-29T02:45:33.157Z,27.23
2018-12-29T02:47:58.320Z,22.97
2018-12-29T02:50:27.229Z,27.10
2018-12-29T02:52:56.031Z,27.10
2018-12-29T02:55:24.824Z,23.87
2018-12-29T02:57:53.551Z,29.20
2018-12-29T03:00:22.104Z,28.27
2018-12-29T03:02:50.613Z,25.63
2018-12-29T03:05:19.486Z,26.33
2018-12-29T03:07:48.343Z,30.03
2018-12-29T03:10:16.907Z,30.93
2018-12-29T03:12:45.708Z,29.63
2018-12-29T03:15:14.301Z,39.40
2018-12-29T03:17:42.779Z,31.23
2018-12-29T03:20:11.682Z,31.60
2018-12-29T03:22:40.475Z,28.20
2018-12-29T03:25:09.463Z,30.77
2018-12-29T03:27:38.329Z,33.47
2018-12-29T03:30:07.456Z,26.67
2018-12-29T03:32:36.286Z,28.83
2018-12-29T03:35:05.622Z,31.60
2018-12-29T03:37:34.222Z,35.00
2018-12-29T03:40:03.075Z,32.10
2018-12-29T03:42:31.871Z,38.43
2018-12-29T03:45:00.526Z,33.63
2018-12-29T03:47:29.088Z,30.37
2018-12-29T03:49:57.707Z,35.60
2018-12-29T03:52:26.618Z,25.83
2018-12-29T03:54:55.489Z,32.83
2018-12-29T03:57:24.080Z,34.70
2018-12-29T03:59:52.563Z,29.13
2018-12-29T04:02:21.847Z,33.10
2018-12-29T04:04:50.611Z,32.10
2018-12-29T04:07:19.528Z,32.83
2018-12-29T04:09:48.360Z,30.67
2018-12-29T04:12:17.243Z,31.47
2018-12-29T04:14:46.141Z,34.30
2018-12-29T04:17:15.089Z,31.40
2018-12-29T04:19:43.575Z,33.30
2018-12-29T04:22:12.466Z,32.13
2018-12-29T04:24:41.011Z,29.90
2018-12-29T04:27:09.879Z,33.20
2018-12-29T04:29:38.446Z,37.30
2018-12-29T04:32:07.242Z,35.10
2018-12-29T04:34:35.832Z,29.73
2018-12-29T04:37:04.775Z,33.53
2018-12-29T04:39:33.622Z,33.83
2018-12-29T04:42:02.181Z,32.70
2018-12-29T04:44:30.978Z,34.03
2018-12-29T04:46:59.828Z,30.13
2018-12-29T04:49:28.615Z,31.17
2018-12-29T04:51:57.141Z,30.00
2018-12-29T04:54:26.013Z,30.43
2018-12-29T04:56:54.647Z,30.83
2018-12-29T04:59:23.458Z,28.03
2018-12-29T05:01:52.320Z,34.63
2018-12-29T05:04:21.256Z,38.27
2018-12-29T05:06:49.745Z,27.57
2018-12-29T05:09:18.619Z,36.93
2018-12-29T05:11:47.447Z,44.90
2018-12-29T05:14:16.248Z,34.50
2018-12-29T05:16:45.143Z,32.93
2018-12-29T05:19:13.930Z,32.43
2018-12-29T05:21:42.485Z,29.47
2018-12-29T05:24:11.394Z,42.33
2018-12-29T05:26:40.192Z,42.37
2018-12-29T05:29:09.120Z,46.33
2018-12-29T05:31:37.752Z,39.27
2018-12-29T05:34:06.552Z,36.93
2018-12-29T05:36:35.494Z,38.03
2018-12-29T05:39:05.925Z,37.20
2018-12-29T05:41:34.586Z,37.97
2018-12-29T05:44:03.384Z,37.50
2018-12-29T05:46:32.188Z,39.97
2018-12-29T05:49:01.037Z,35.57
2018-12-29T05:51:29.526Z,37.33
2018-12-29T05:53:58.356Z,39.67
2018-12-29T05:56:27.288Z,37.73
2018-12-29T05:58:55.819Z,42.90
2018-12-29T06:01:24.617Z,40.37
2018-12-29T06:03:53.415Z,41.67
2018-12-29T06:06:22.248Z,39.90
2018-12-29T06:08:51.060Z,47.17
2018-12-29T06:11:19.954Z,44.03
2018-12-29T06:13:48.442Z,44.13
2018-12-29T06:16:17.190Z,40.73
2018-12-29T06:18:45.671Z,35.53
2018-12-29T06:21:14.231Z,51.00
2018-12-29T06:23:43.119Z,42.27
2018-12-29T06:26:11.608Z,36.87
2018-12-29T06:28:40.547Z,33.00
2018-12-29T06:31:09.041Z,37.40
2018-12-29T06:33:37.915Z,41.53
2018-12-29T06:36:06.764Z,39.13
2018-12-29T06:38:35.576Z,36.23
2018-12-29T06:41:04.642Z,35.33
2018-12-29T06:43:33.468Z,37.17
2018-12-29T06:46:02.268Z,36.67
2018-12-29T06:48:31.176Z,34.47
2018-12-29T06:51:00.064Z,34.70
2018-12-29T06:53:29.010Z,36.90
2018-12-29T06:55:57.954Z,35.00
2018-12-29T06:58:26.450Z,31.67
2018-12-29T07:00:55.276Z,38.73
2018-12-29T07:03:24.157Z,31.97
2018-12-29T07:05:53.058Z,40.70
2018-12-29T07:08:21.991Z,36.73
2018-12-29T07:10:50.485Z,37.50
2018-12-29T07:13:19.395Z,32.60
2018-12-29T07:15:48.261Z,36.50
2018-12-29T07:18:17.238Z,40.60
2018-12-29T07:20:45.801Z,34.37
2018-12-29T07:23:14.630Z,33.07
2018-12-29T07:25:43.146Z,36.93
2018-12-29T07:28:11.713Z,39.03
2018-12-29T07:30:40.715Z,30.17
2018-12-29T07:33:09.523Z,30.67
2018-12-29T07:35:38.404Z,43.17
2018-12-29T07:38:06.919Z,31.37
2018-12-29T07:40:54.724Z,37.47
2018-12-29T07:43:23.239Z,26.87
2018-12-29T07:46:10.914Z,32.63
2018-12-29T07:48:58.725Z,31.37
2018-12-29T07:51:27.207Z,34.47
2018-12-29T07:53:55.696Z,33.67
2018-12-29T07:56:24.217Z,29.73
2018-12-29T07:58:52.741Z,37.57
2018-12-29T08:01:40.472Z,34.07
2018-12-29T08:04:08.960Z,33.70
2018-12-29T08:06:37.443Z,34.50
2018-12-29T08:09:45.878Z,34.53
2018-12-29T08:12:14.363Z,30.93
2018-12-29T08:15:02.232Z,28.40
2018-12-29T08:17:49.874Z,30.60
2018-12-29T08:22:52.712Z,44.33
2018-12-29T08:25:21.201Z,41.43
2018-12-29T08:28:08.911Z,32.63
2018-12-29T08:30:37.399Z,36.33
2018-12-29T08:33:05.917Z,36.53
2018-12-29T08:35:34.407Z,31.17
2018-12-29T08:38:02.976Z,36.60
2018-12-29T08:40:50.806Z,35.40
2018-12-29T08:43:38.716Z,39.63
2018-12-29T08:46:07.210Z,29.83
2018-12-29T08:48:35.694Z,35.63
2018-12-29T08:54:17.367Z,35.73
2018-12-29T08:59:20.156Z,32.80
2018-12-29T09:02:08.243Z,36.03
2018-12-29T09:04:36.884Z,38.10
2018-12-29T09:07:05.447Z,53.33
2018-12-29T09:09:34.425Z,34.17
2018-12-29T09:12:02.983Z,36.80
2018-12-29T09:14:32.157Z,36.67
2018-12-29T09:17:01.036Z,43.73
2018-12-29T09:19:29.841Z,39.90
2018-12-29T09:21:58.751Z,34.57
2018-12-29T09:24:27.580Z,30.67
2018-12-29T09:26:56.169Z,38.93
2018-12-29T09:29:25.094Z,33.40
2018-12-29T09:31:53.956Z,36.77
2018-12-29T09:34:22.946Z,35.50
2018-12-29T09:36:51.496Z,30.83
2018-12-29T09:39:20.504Z,32.63
2018-12-29T09:41:49.372Z,30.33
2018-12-29T09:44:18.165Z,37.43
2018-12-29T09:46:46.991Z,37.90
2018-12-29T09:49:15.864Z,30.57
2018-12-29T09:51:44.778Z,24.27
2018-12-29T09:54:13.577Z,34.10
2018-12-29T09:56:42.505Z,34.13
2018-12-29T09:59:11.336Z,31.80
2018-12-29T10:01:40.195Z,30.33
2018-12-29T10:04:08.805Z,31.10
2018-12-29T10:06:37.292Z,30.40
2018-12-29T10:09:07.166Z,28.63
2018-12-29T10:11:36.063Z,27.23
2018-12-29T10:14:04.852Z,25.90
2018-12-29T10:16:33.453Z,24.17
2018-12-29T10:19:02.249Z,27.57
2018-12-29T10:21:31.096Z,34.13
2018-12-29T10:23:59.647Z,31.40
2018-12-29T10:26:28.303Z,42.73
2018-12-29T10:28:57.220Z,29.50
2018-12-29T10:31:26.018Z,32.53
2018-12-29T10:33:55.399Z,44.07
2018-12-29T10:36:24.349Z,32.37
2018-12-29T10:38:53.405Z,26.20
2018-12-29T10:41:22.239Z,24.90
2018-12-29T10:43:51.626Z,34.27
2018-12-29T10:46:20.684Z,30.03
2018-12-29T10:48:50.135Z,31.73
2018-12-29T10:51:19.323Z,26.30
2018-12-29T10:53:47.881Z,26.87
2018-12-29T10:56:16.366Z,30.90
2018-12-29T10:58:44.883Z,28.97
2018-12-29T11:01:13.810Z,31.57
2018-12-29T11:03:42.765Z,40.53
2018-12-29T11:06:11.559Z,30.90
2018-12-29T11:08:40.441Z,27.83
2018-12-29T11:11:09.266Z,28.60
2018-12-29T11:13:38.064Z,24.80
2018-12-29T11:16:07.231Z,29.80
2018-12-29T11:18:35.723Z,29.23
2018-12-29T11:21:04.558Z,26.10
2018-12-29T11:23:33.478Z,28.10
2018-12-29T11:26:02.268Z,30.40
2018-12-29T11:28:30.884Z,30.90
2018-12-29T11:30:59.731Z,30.03
2018-12-29T11:33:28.531Z,28.67
2018-12-29T11:35:57.414Z,29.90
2018-12-29T11:38:26.210Z,29.93
2018-12-29T11:40:55.208Z,33.90
2018-12-29T11:43:24.071Z,28.23
2018-12-29T11:45:54.551Z,29.60
2018-12-29T11:48:24.757Z,32.93
2018-12-29T11:50:56.098Z,33.57
2018-12-29T11:53:25.318Z,29.03
2018-12-29T11:55:54.111Z,33.67
2018-12-29T11:58:23.090Z,29.40
2018-12-29T12:00:51.968Z,33.17
2018-12-29T12:03:20.679Z,35.13
2018-12-29T12:05:49.693Z,30.87
2018-12-29T12:08:18.189Z,29.03
2018-12-29T12:10:47.059Z,33.20
2018-12-29T12:13:15.904Z,34.50
2018-12-29T12:15:44.781Z,25.50
2018-12-29T12:18:13.838Z,25.80
2018-12-29T12:20:42.703Z,29.37
2018-12-29T12:23:11.561Z,28.63
2018-12-29T12:25:40.155Z,24.30
2018-12-29T12:28:08.972Z,28.83
2018-12-29T12:30:37.674Z,28.50
2018-12-29T12:33:06.467Z,29.70
2018-12-29T12:35:34.953Z,23.70
2018-12-29T12:38:04.215Z,27.50
2018-12-29T12:40:33.083Z,29.47
2018-12-29T12:43:01.922Z,25.97
2018-12-29T12:45:30.731Z,28.83
2018-12-29T12:48:05.164Z,25.37
2018-12-29T12:50:30.148Z,30.27
2018-12-29T12:53:01.157Z,27.30
2018-12-29T12:55:29.265Z,31.40
2018-12-29T12:57:58.309Z,29.00
2018-12-29T13:00:27.660Z,22.10
2018-12-29T13:02:56.735Z,28.70
2018-12-29T13:05:25.615Z,22.80
2018-12-29T13:07:54.459Z,31.20
2018-12-29T13:10:23.259Z,22.33
2018-12-29T13:12:52.168Z,25.63
2018-12-29T13:15:21.821Z,26.63
2018-12-29T13:17:50.557Z,26.30
2018-12-29T13:20:19.428Z,21.80
2018-12-29T13:22:47.922Z,28.87
2018-12-29T13:25:17.620Z,27.53
2018-12-29T13:27:46.255Z,27.13
2018-12-29T13:30:15.219Z,24.57
2018-12-29T13:32:43.777Z,24.33
2018-12-29T13:35:12.647Z,23.60
2018-12-29T13:37:41.481Z,29.10
2018-12-29T13:40:10.753Z,25.23
2018-12-29T13:42:39.476Z,24.30
2018-12-29T13:45:08.230Z,24.50
2018-12-29T13:47:37.064Z,23.50
2018-12-29T13:50:08.036Z,23.33
2018-12-29T13:52:36.842Z,23.00
2018-12-29T13:55:05.593Z,31.47
2018-12-29T13:57:34.763Z,27.27
2018-12-29T14:00:04.502Z,26.40
2018-12-29T14:02:33.098Z,26.87
2018-12-29T14:05:01.718Z,27.57
2018-12-29T14:07:30.611Z,22.73
2018-12-29T14:09:59.417Z,24.93
2018-12-29T14:12:28.325Z,27.00
2018-12-29T14:14:57.155Z,25.07
2018-12-29T14:17:26.022Z,27.33
2018-12-29T14:19:54.931Z,23.20
2018-12-29T14:22:23.803Z,27.97
2018-12-29T14:24:52.632Z,29.00
2018-12-29T14:27:21.627Z,25.80
2018-12-29T14:29:50.420Z,28.13
2018-12-29T14:32:18.950Z,22.87
2018-12-29T14:34:48.598Z,28.20
2018-12-29T14:37:17.597Z,27.00
2018-12-29T14:39:46.466Z,29.13
2018-12-29T14:42:15.168Z,29.20
2018-12-29T14:44:44.454Z,28.13
2018-12-29T14:47:13.332Z,25.33
2018-12-29T14:49:42.184Z,32.67
2018-12-29T14:52:10.975Z,32.00
2018-12-29T14:54:39.799Z,35.87
2018-12-29T14:57:09.263Z,22.40
2018-12-29T14:59:38.125Z,28.13
2018-12-29T15:02:07.140Z,28.03
2018-12-29T15:04:35.773Z,34.40
2018-12-29T15:07:04.676Z,34.33
2018-12-29T15:09:33.491Z,26.23
2018-12-29T15:12:02.375Z,26.87
2018-12-29T15:14:31.363Z,32.63
2018-12-29T15:17:00.159Z,36.30
2018-12-29T15:19:28.949Z,29.50
2018-12-29T15:21:57.861Z,29.57
2018-12-29T15:24:26.660Z,29.50
2018-12-29T15:26:55.491Z,30.63
2018-12-29T15:29:23.985Z,33.23
2018-12-29T15:31:52.793Z,26.80
2018-12-29T15:34:21.614Z,28.70
2018-12-29T15:36:50.479Z,30.97
2018-12-29T15:39:19.669Z,25.40
2018-12-29T15:41:48.636Z,27.30
2018-12-29T15:44:17.410Z,26.30
2018-12-29T15:46:46.236Z,24.37
2018-12-29T15:49:14.791Z,24.57
2018-12-29T15:51:43.914Z,28.07
2018-12-29T15:54:12.907Z,28.07
2018-12-29T15:56:41.463Z,25.57
2018-12-29T15:59:10.365Z,24.80
2018-12-29T16:01:39.844Z,29.30
2018-12-29T16:04:08.916Z,26.87
2018-12-29T16:06:37.843Z,27.73
2018-12-29T16:09:07.454Z,26.63
2018-12-29T16:11:36.560Z,27.40
2018-12-29T16:14:05.431Z,28.17
2018-12-29T16:16:34.694Z,35.30
2018-12-29T16:19:03.251Z,34.20
2018-12-29T16:21:32.087Z,30.07
2018-12-29T16:24:01.053Z,32.50
2018-12-29T16:26:29.843Z,30.10
2018-12-29T16:28:58.742Z,28.07
2018-12-29T16:31:27.537Z,32.87
2018-12-29T16:33:56.384Z,38.47
2018-12-29T16:36:24.890Z,32.83
2018-12-29T16:38:53.760Z,34.67
2018-12-29T16:41:22.655Z,37.10
2018-12-29T16:43:51.523Z,25.60
2018-12-29T16:46:20.103Z,27.73
2018-12-29T16:48:48.965Z,27.13
2018-12-29T16:51:17.864Z,28.60
2018-12-29T16:53:47.100Z,27.17
2018-12-29T16:56:15.589Z,18.60
2018-12-29T16:58:44.419Z,27.13
2018-12-29T17:01:12.899Z,23.60
2018-12-29T17:03:42.166Z,22.93
2018-12-29T17:06:10.732Z,26.07
2018-12-29T17:08:39.630Z,27.50
2018-12-29T17:11:08.521Z,29.97
2018-12-29T17:13:37.281Z,26.97
2018-12-29T17:16:06.252Z,20.80
2018-12-29T17:18:35.391Z,25.97
2018-12-29T17:21:04.092Z,22.70
2018-12-29T17:23:32.643Z,21.30
2018-12-29T17:26:01.467Z,20.40
2018-12-29T17:28:30.754Z,23.50
2018-12-29T17:30:59.671Z,22.57
2018-12-29T17:33:48.100Z,22.87
2018-12-29T17:39:07.350Z,24.03
2018-12-29T17:41:35.997Z,16.60
2018-12-29T17:44:04.901Z,16.60
2018-12-29T17:46:33.968Z,16.17
2018-12-29T17:49:02.940Z,19.13
2018-12-29T17:51:31.729Z,19.83
2018-12-29T17:54:00.252Z,16.17
2018-12-29T17:56:29.372Z,17.40
2018-12-29T17:58:58.271Z,18.53
2018-12-29T18:01:27.095Z,17.97
2018-12-29T18:03:55.577Z,15.40
2018-12-29T18:06:24.162Z,16.90
2018-12-29T18:08:53.333Z,16.63
2018-12-29T18:11:22.202Z,17.43
2018-12-29T18:13:51.074Z,18.30
2018-12-29T18:16:19.933Z,23.13
2018-12-29T18:18:48.828Z,30.73
2018-12-29T18:21:17.632Z,20.20
2018-12-29T18:23:46.251Z,24.20
2018-12-29T18:26:15.114Z,18.53
2018-12-29T18:28:43.604Z,20.33
2018-12-29T18:31:12.445Z,22.50
2018-12-29T18:33:41.405Z,19.70
2018-12-29T18:36:10.563Z,15.13
2018-12-29T18:38:39.701Z,17.10
2018-12-29T18:41:08.559Z,18.67
2018-12-29T18:43:37.518Z,18.20
2018-12-29T18:46:06.014Z,17.07
2018-12-29T18:48:34.543Z,22.03
2018-12-29T18:51:03.472Z,17.37
2018-12-29T18:53:32.392Z,15.43
2018-12-29T18:56:00.922Z,21.90
2018-12-29T18:58:29.480Z,16.47
2018-12-29T19:00:58.460Z,16.77
2018-12-29T19:03:27.352Z,21.40
2018-12-29T19:05:56.672Z,22.23
2018-12-29T19:08:25.507Z,13.37
2018-12-29T19:10:54.495Z,15.97
2018-12-29T19:13:23.931Z,23.80
2018-12-29T19:15:53.095Z,16.43
2018-12-29T19:18:21.897Z,13.37
2018-12-29T19:20:51.613Z,15.67
2018-12-29T19:23:20.505Z,13.83
2018-12-29T19:25:49.777Z,14.90
2018-12-29T19:28:18.935Z,15.30
2018-12-29T19:30:47.882Z,11.20
2018-12-29T19:33:17.173Z,14.90
2018-12-29T19:35:46.378Z,13.53
2018-12-29T19:38:15.769Z,13.67
2018-12-29T19:40:44.629Z,11.33
2018-12-29T19:43:13.704Z,9.30
2018-12-29T19:45:42.385Z,11.60
2018-12-29T19:48:10.947Z,9.00
2018-12-29T19:50:39.767Z,9.83
2018-12-29T19:53:08.726Z,8.10
2018-12-29T19:58:49.344Z,9.13
2018-12-29T20:01:37.151Z,9.23
2018-12-29T20:04:26.562Z,9.33
2018-12-29T20:07:16.114Z,8.00
2018-12-29T20:10:05.645Z,7.83
2018-12-29T20:12:53.381Z,6.73
2018-12-29T20:15:42.822Z,5.47
2018-12-29T20:18:30.753Z,5.23
2018-12-29T20:21:20.274Z,5.40
2018-12-29T20:26:42.039Z,5.30
2018-12-29T20:29:30.909Z,4.90
2018-12-29T20:32:00.008Z,4.63
2018-12-29T20:34:48.025Z,4.90
2018-12-29T20:37:35.889Z,5.00
2018-12-29T20:40:44.477Z,4.80
2018-12-29T20:43:32.321Z,4.27
2018-12-29T20:46:20.281Z,3.80
2018-12-29T20:49:08.082Z,3.53
2018-12-29T20:51:55.786Z,3.33
2018-12-29T20:54:24.265Z,3.53
2018-12-29T20:57:12.177Z,3.20
2018-12-29T20:59:40.660Z,3.30
2018-12-29T21:02:28.531Z,2.70
2018-12-29T21:04:57.077Z,2.67
2018-12-29T21:07:46.533Z,4.60
2018-12-29T21:10:34.254Z,2.93
2018-12-29T21:13:22.256Z,4.50
2018-12-29T21:16:11.712Z,3.93
2018-12-29T21:18:59.421Z,3.50
2018-12-29T21:21:47.233Z,6.20
2018-12-29T21:24:34.946Z,2.90
2018-12-29T21:27:03.428Z,4.57
2018-12-29T21:29:51.169Z,3.60
2018-12-29T21:32:19.647Z,2.80
2018-12-29T21:35:07.489Z,3.30
2018-12-29T21:37:55.216Z,3.50
2018-12-29T21:40:44.665Z,2.83
2018-12-29T21:43:32.381Z,2.30
2018-12-29T21:46:20.236Z,3.03
2018-12-29T21:48:48.722Z,2.33
2018-12-29T21:51:17.207Z,8.03
2018-12-29T21:53:45.716Z,3.40
2018-12-29T21:56:14.197Z,3.73
2018-12-29T22:01:16.344Z,3.80
2018-12-29T22:04:04.037Z,3.40
2018-12-29T22:06:32.792Z,3.80
2018-12-29T22:09:20.709Z,5.33
2018-12-29T22:11:49.183Z,3.63
2018-12-29T22:14:17.662Z,3.57
2018-12-29T22:19:41.484Z,3.70
2018-12-29T22:22:09.992Z,4.20
2018-12-29T22:24:38.470Z,3.90
2018-12-29T22:27:26.228Z,5.00
2018-12-29T22:29:54.704Z,3.37
2018-12-29T22:32:23.180Z,3.87
2018-12-29T22:34:51.689Z,4.30
2018-12-29T22:37:39.481Z,5.77
2018-12-29T22:40:27.248Z,3.50
2018-12-29T22:43:15.044Z,4.10
2018-12-29T22:45:43.549Z,5.70
2018-12-29T22:48:31.269Z,5.57
2018-12-29T22:50:59.800Z,4.40
2018-12-29T22:53:47.598Z,5.67
2018-12-29T22:56:35.514Z,4.27
2018-12-29T22:59:23.194Z,6.17
2018-12-29T23:02:11.007Z,5.87
2018-12-29T23:04:58.798Z,5.53
2018-12-29T23:07:46.512Z,5.33
2018-12-29T23:10:34.228Z,5.43
2018-12-29T23:13:04.536Z,6.60
2018-12-29T23:15:33.013Z,5.27
2018-12-29T23:18:20.745Z,5.80
2018-12-29T23:20:50.941Z,6.17
2018-12-29T23:23:38.740Z,5.67
2018-12-29T23:26:07.234Z,6.00
2018-12-29T23:28:35.717Z,4.70
2018-12-29T23:31:25.174Z,10.30
2018-12-29T23:33:53.718Z,7.67
2018-12-29T23:39:11.461Z,7.37
2018-12-29T23:41:59.264Z,5.37
2018-12-29T23:44:46.965Z,6.10
2018-12-29T23:47:34.757Z,6.67
2018-12-29T23:50:22.613Z,5.90
2018-12-29T23:52:52.795Z,6.00
2018-12-29T23:55:22.992Z,6.20
2018-12-29T23:57:51.504Z,5.97
